sensor_id;sensor_type;location;lat;lon;timestamp;P1;durP1;ratioP1;P2;durP2;ratioP2
4986;SDS011;12674;51.500;7.552;2024-03-07T00:00:01;51.63;;;30.97;;
4986;SDS011;12674;51.500;7.552;2024-03-07T00:02:12;51.73;;;31.47;;
4986;SDS011;12674;51.500;7.552;2024-03-07T00:04:15;48.50;;;30.10;;
4986;SDS011;12674;51.500;7.552;2024-03-07T00:06:18;50.90;;;31.70;;
4986;SDS011;12674;51.500;7.552;2024-03-07T00:08:22;56.93;;;33.37;;
4986;SDS011;12674;51.500;7.552;2024-03-07T00:10:25;64.73;;;32.90;;
4986;SDS011;12674;51.500;7.552;2024-03-07T00:12:28;55.23;;;30.20;;
4986;SDS011;12674;51.500;7.552;2024-03-07T00:14:31;55.90;;;31.07;;
4986;SDS011;12674;51.500;7.552;2024-03-07T00:16:38;47.50;;;30.77;;
4986;SDS011;12674;51.500;7.552;2024-03-07T00:18:41;50.07;;;30.13;;
4986;SDS011;12674;51.500;7.552;2024-03-07T00:20:43;54.63;;;31.70;;
4986;SDS011;12674;51.500;7.552;2024-03-07T00:22:46;53.20;;;31.00;;
4986;SDS011;12674;51.500;7.552;2024-03-07T00:24:49;51.47;;;31.50;;
4986;SDS011;12674;51.500;7.552;2024-03-07T00:26:51;54.20;;;30.73;;
4986;SDS011;12674;51.500;7.552;2024-03-07T00:28:54;51.07;;;30.23;;
4986;SDS011;12674;51.500;7.552;2024-03-07T00:30:57;50.60;;;29.70;;
4986;SDS011;12674;51.500;7.552;2024-03-07T00:33:02;54.00;;;31.80;;
4986;SDS011;12674;51.500;7.552;2024-03-07T00:35:06;69.60;;;30.30;;
4986;SDS011;12674;51.500;7.552;2024-03-07T00:37:10;60.23;;;30.37;;
4986;SDS011;12674;51.500;7.552;2024-03-07T00:39:14;52.13;;;29.70;;
4986;SDS011;12674;51.500;7.552;2024-03-07T00:41:17;45.80;;;28.20;;
4986;SDS011;12674;51.500;7.552;2024-03-07T00:43:20;48.93;;;29.30;;
4986;SDS011;12674;51.500;7.552;2024-03-07T00:45:23;48.37;;;28.90;;
4986;SDS011;12674;51.500;7.552;2024-03-07T00:47:26;47.90;;;28.00;;
4986;SDS011;12674;51.500;7.552;2024-03-07T00:49:29;41.97;;;27.20;;
4986;SDS011;12674;51.500;7.552;2024-03-07T00:51:32;45.93;;;26.00;;
4986;SDS011;12674;51.500;7.552;2024-03-07T00:53:36;45.60;;;27.50;;
4986;SDS011;12674;51.500;7.552;2024-03-07T00:55:39;56.23;;;28.73;;
4986;SDS011;12674;51.500;7.552;2024-03-07T00:57:42;50.60;;;29.07;;
4986;SDS011;12674;51.500;7.552;2024-03-07T00:59:45;53.83;;;30.23;;
4986;SDS011;12674;51.500;7.552;2024-03-07T01:01:47;46.67;;;28.20;;
4986;SDS011;12674;51.500;7.552;2024-03-07T01:03:50;49.23;;;28.33;;
4986;SDS011;12674;51.500;7.552;2024-03-07T01:05:55;48.17;;;28.60;;
4986;SDS011;12674;51.500;7.552;2024-03-07T01:07:58;47.83;;;28.97;;
4986;SDS011;12674;51.500;7.552;2024-03-07T01:10:01;46.73;;;28.17;;
4986;SDS011;12674;51.500;7.552;2024-03-07T01:12:04;50.77;;;30.10;;
4986;SDS011;12674;51.500;7.552;2024-03-07T01:14:08;46.90;;;29.23;;
4986;SDS011;12674;51.500;7.552;2024-03-07T01:16:11;45.90;;;29.77;;
4986;SDS011;12674;51.500;7.552;2024-03-07T01:18:13;51.47;;;28.17;;
4986;SDS011;12674;51.500;7.552;2024-03-07T01:20:16;54.80;;;31.17;;
4986;SDS011;12674;51.500;7.552;2024-03-07T01:22:21;49.40;;;29.03;;
4986;SDS011;12674;51.500;7.552;2024-03-07T01:24:24;52.47;;;30.07;;
4986;SDS011;12674;51.500;7.552;2024-03-07T01:26:27;51.40;;;29.57;;
4986;SDS011;12674;51.500;7.552;2024-03-07T01:28:30;45.50;;;27.63;;
4986;SDS011;12674;51.500;7.552;2024-03-07T01:30:32;41.57;;;27.43;;
4986;SDS011;12674;51.500;7.552;2024-03-07T01:32:35;45.77;;;28.40;;
4986;SDS011;12674;51.500;7.552;2024-03-07T01:34:37;42.40;;;24.47;;
4986;SDS011;12674;51.500;7.552;2024-03-07T01:36:40;45.07;;;26.93;;
4986;SDS011;12674;51.500;7.552;2024-03-07T01:38:45;41.50;;;24.60;;
4986;SDS011;12674;51.500;7.552;2024-03-07T01:40:47;49.33;;;26.63;;
4986;SDS011;12674;51.500;7.552;2024-03-07T01:42:50;43.27;;;26.60;;
4986;SDS011;12674;51.500;7.552;2024-03-07T01:44:53;45.57;;;26.90;;
4986;SDS011;12674;51.500;7.552;2024-03-07T01:46:55;44.80;;;28.33;;
4986;SDS011;12674;51.500;7.552;2024-03-07T01:48:58;46.10;;;27.47;;
4986;SDS011;12674;51.500;7.552;2024-03-07T01:51:00;44.37;;;28.57;;
4986;SDS011;12674;51.500;7.552;2024-03-07T01:53:05;45.77;;;25.87;;
4986;SDS011;12674;51.500;7.552;2024-03-07T01:55:10;47.60;;;28.77;;
4986;SDS011;12674;51.500;7.552;2024-03-07T01:57:15;51.70;;;26.77;;
4986;SDS011;12674;51.500;7.552;2024-03-07T01:59:20;45.97;;;25.10;;
4986;SDS011;12674;51.500;7.552;2024-03-07T02:01:23;44.90;;;26.17;;
4986;SDS011;12674;51.500;7.552;2024-03-07T02:03:28;52.67;;;26.90;;
4986;SDS011;12674;51.500;7.552;2024-03-07T02:05:30;45.03;;;27.57;;
4986;SDS011;12674;51.500;7.552;2024-03-07T02:07:33;41.10;;;27.30;;
4986;SDS011;12674;51.500;7.552;2024-03-07T02:09:36;48.40;;;27.07;;
4986;SDS011;12674;51.500;7.552;2024-03-07T02:11:40;46.13;;;29.10;;
4986;SDS011;12674;51.500;7.552;2024-03-07T02:13:43;51.27;;;26.30;;
4986;SDS011;12674;51.500;7.552;2024-03-07T02:15:45;43.97;;;27.23;;
4986;SDS011;12674;51.500;7.552;2024-03-07T02:17:49;48.53;;;28.17;;
4986;SDS011;12674;51.500;7.552;2024-03-07T02:19:52;50.97;;;29.43;;
4986;SDS011;12674;51.500;7.552;2024-03-07T02:21:55;47.07;;;28.77;;
4986;SDS011;12674;51.500;7.552;2024-03-07T02:23:58;42.87;;;27.73;;
4986;SDS011;12674;51.500;7.552;2024-03-07T02:26:01;49.73;;;29.47;;
4986;SDS011;12674;51.500;7.552;2024-03-07T02:28:05;40.77;;;25.80;;
4986;SDS011;12674;51.500;7.552;2024-03-07T02:30:09;44.63;;;28.70;;
4986;SDS011;12674;51.500;7.552;2024-03-07T02:32:13;46.87;;;29.00;;
4986;SDS011;12674;51.500;7.552;2024-03-07T02:34:16;49.83;;;30.10;;
4986;SDS011;12674;51.500;7.552;2024-03-07T02:36:19;49.90;;;29.10;;
4986;SDS011;12674;51.500;7.552;2024-03-07T02:38:24;39.90;;;27.53;;
4986;SDS011;12674;51.500;7.552;2024-03-07T02:40:28;52.00;;;28.90;;
4986;SDS011;12674;51.500;7.552;2024-03-07T02:42:31;43.93;;;28.23;;
4986;SDS011;12674;51.500;7.552;2024-03-07T02:44:34;47.20;;;28.63;;
4986;SDS011;12674;51.500;7.552;2024-03-07T02:46:37;48.50;;;30.57;;
4986;SDS011;12674;51.500;7.552;2024-03-07T02:48:40;45.27;;;27.50;;
4986;SDS011;12674;51.500;7.552;2024-03-07T02:50:43;54.53;;;29.47;;
4986;SDS011;12674;51.500;7.552;2024-03-07T02:52:46;45.80;;;28.53;;
4986;SDS011;12674;51.500;7.552;2024-03-07T02:54:50;44.70;;;28.87;;
4986;SDS011;12674;51.500;7.552;2024-03-07T02:56:53;46.33;;;30.00;;
4986;SDS011;12674;51.500;7.552;2024-03-07T02:58:56;39.47;;;25.53;;
4986;SDS011;12674;51.500;7.552;2024-03-07T03:01:02;47.07;;;28.90;;
4986;SDS011;12674;51.500;7.552;2024-03-07T03:03:05;39.83;;;26.40;;
4986;SDS011;12674;51.500;7.552;2024-03-07T03:05:08;46.50;;;26.90;;
4986;SDS011;12674;51.500;7.552;2024-03-07T03:07:11;39.67;;;25.03;;
4986;SDS011;12674;51.500;7.552;2024-03-07T03:09:14;51.10;;;25.50;;
4986;SDS011;12674;51.500;7.552;2024-03-07T03:11:20;46.43;;;26.73;;
4986;SDS011;12674;51.500;7.552;2024-03-07T03:13:24;45.33;;;25.60;;
4986;SDS011;12674;51.500;7.552;2024-03-07T03:15:29;39.57;;;24.97;;
4986;SDS011;12674;51.500;7.552;2024-03-07T03:17:32;46.20;;;26.13;;
4986;SDS011;12674;51.500;7.552;2024-03-07T03:19:35;45.40;;;26.70;;
4986;SDS011;12674;51.500;7.552;2024-03-07T03:21:38;42.70;;;26.00;;
4986;SDS011;12674;51.500;7.552;2024-03-07T03:23:42;42.40;;;25.03;;
4986;SDS011;12674;51.500;7.552;2024-03-07T03:25:45;46.77;;;25.03;;
4986;SDS011;12674;51.500;7.552;2024-03-07T03:27:51;40.40;;;23.37;;
4986;SDS011;12674;51.500;7.552;2024-03-07T03:29:54;44.80;;;26.93;;
4986;SDS011;12674;51.500;7.552;2024-03-07T03:31:57;39.80;;;26.57;;
4986;SDS011;12674;51.500;7.552;2024-03-07T03:34:00;42.87;;;25.83;;
4986;SDS011;12674;51.500;7.552;2024-03-07T03:36:03;39.70;;;23.97;;
4986;SDS011;12674;51.500;7.552;2024-03-07T03:38:06;44.10;;;28.37;;
4986;SDS011;12674;51.500;7.552;2024-03-07T03:40:10;38.77;;;25.37;;
4986;SDS011;12674;51.500;7.552;2024-03-07T03:42:14;45.20;;;25.97;;
4986;SDS011;12674;51.500;7.552;2024-03-07T03:44:18;36.90;;;25.60;;
4986;SDS011;12674;51.500;7.552;2024-03-07T03:46:22;45.63;;;26.50;;
4986;SDS011;12674;51.500;7.552;2024-03-07T03:48:25;39.67;;;25.87;;
4986;SDS011;12674;51.500;7.552;2024-03-07T03:50:28;41.57;;;26.67;;
4986;SDS011;12674;51.500;7.552;2024-03-07T03:52:31;38.83;;;24.70;;
4986;SDS011;12674;51.500;7.552;2024-03-07T03:54:33;41.90;;;26.17;;
4986;SDS011;12674;51.500;7.552;2024-03-07T03:56:36;45.13;;;27.90;;
4986;SDS011;12674;51.500;7.552;2024-03-07T03:58:41;52.43;;;27.60;;
4986;SDS011;12674;51.500;7.552;2024-03-07T04:00:46;52.80;;;28.97;;
4986;SDS011;12674;51.500;7.552;2024-03-07T04:02:49;45.27;;;28.53;;
4986;SDS011;12674;51.500;7.552;2024-03-07T04:04:53;45.77;;;28.87;;
4986;SDS011;12674;51.500;7.552;2024-03-07T04:06:56;59.00;;;31.80;;
4986;SDS011;12674;51.500;7.552;2024-03-07T04:08:59;43.23;;;28.23;;
4986;SDS011;12674;51.500;7.552;2024-03-07T04:11:02;40.03;;;27.63;;
4986;SDS011;12674;51.500;7.552;2024-03-07T04:13:05;45.27;;;28.93;;
4986;SDS011;12674;51.500;7.552;2024-03-07T04:15:10;51.93;;;28.23;;
4986;SDS011;12674;51.500;7.552;2024-03-07T04:17:16;45.30;;;29.40;;
4986;SDS011;12674;51.500;7.552;2024-03-07T04:19:19;45.70;;;28.33;;
4986;SDS011;12674;51.500;7.552;2024-03-07T04:21:22;67.03;;;29.03;;
4986;SDS011;12674;51.500;7.552;2024-03-07T04:23:27;49.77;;;29.60;;
4986;SDS011;12674;51.500;7.552;2024-03-07T04:25:30;52.80;;;29.90;;
4986;SDS011;12674;51.500;7.552;2024-03-07T04:27:34;42.97;;;28.80;;
4986;SDS011;12674;51.500;7.552;2024-03-07T04:29:38;51.93;;;29.50;;
4986;SDS011;12674;51.500;7.552;2024-03-07T04:31:41;43.27;;;28.97;;
4986;SDS011;12674;51.500;7.552;2024-03-07T04:33:45;41.60;;;27.50;;
4986;SDS011;12674;51.500;7.552;2024-03-07T04:35:48;46.27;;;28.93;;
4986;SDS011;12674;51.500;7.552;2024-03-07T04:37:53;41.67;;;28.10;;
4986;SDS011;12674;51.500;7.552;2024-03-07T04:39:57;41.73;;;27.63;;
4986;SDS011;12674;51.500;7.552;2024-03-07T04:41:59;44.80;;;28.07;;
4986;SDS011;12674;51.500;7.552;2024-03-07T04:44:03;43.30;;;27.80;;
4986;SDS011;12674;51.500;7.552;2024-03-07T04:46:06;46.53;;;28.63;;
4986;SDS011;12674;51.500;7.552;2024-03-07T04:48:09;42.40;;;27.00;;
4986;SDS011;12674;51.500;7.552;2024-03-07T04:50:14;43.17;;;26.63;;
4986;SDS011;12674;51.500;7.552;2024-03-07T04:52:20;40.00;;;26.40;;
4986;SDS011;12674;51.500;7.552;2024-03-07T04:54:23;42.70;;;26.53;;
4986;SDS011;12674;51.500;7.552;2024-03-07T04:56:27;46.53;;;25.60;;
4986;SDS011;12674;51.500;7.552;2024-03-07T04:58:29;39.43;;;25.17;;
4986;SDS011;12674;51.500;7.552;2024-03-07T05:00:32;46.30;;;27.17;;
4986;SDS011;12674;51.500;7.552;2024-03-07T05:02:35;40.93;;;26.87;;
4986;SDS011;12674;51.500;7.552;2024-03-07T05:04:38;38.07;;;25.73;;
4986;SDS011;12674;51.500;7.552;2024-03-07T05:06:43;41.33;;;26.70;;
4986;SDS011;12674;51.500;7.552;2024-03-07T05:08:49;39.67;;;27.33;;
4986;SDS011;12674;51.500;7.552;2024-03-07T05:10:52;47.37;;;26.50;;
4986;SDS011;12674;51.500;7.552;2024-03-07T05:12:56;41.83;;;26.80;;
4986;SDS011;12674;51.500;7.552;2024-03-07T05:15:00;36.17;;;25.30;;
4986;SDS011;12674;51.500;7.552;2024-03-07T05:17:05;50.37;;;25.23;;
4986;SDS011;12674;51.500;7.552;2024-03-07T05:19:10;40.90;;;26.23;;
4986;SDS011;12674;51.500;7.552;2024-03-07T05:21:13;43.47;;;25.67;;
4986;SDS011;12674;51.500;7.552;2024-03-07T05:23:37;39.90;;;25.67;;
4986;SDS011;12674;51.500;7.552;2024-03-07T05:25:40;34.23;;;23.40;;
4986;SDS011;12674;51.500;7.552;2024-03-07T05:27:43;42.63;;;25.60;;
4986;SDS011;12674;51.500;7.552;2024-03-07T05:29:46;33.63;;;24.57;;
4986;SDS011;12674;51.500;7.552;2024-03-07T05:31:48;40.70;;;25.67;;
4986;SDS011;12674;51.500;7.552;2024-03-07T05:33:51;37.40;;;25.30;;
4986;SDS011;12674;51.500;7.552;2024-03-07T05:35:54;39.90;;;26.50;;
4986;SDS011;12674;51.500;7.552;2024-03-07T05:38:15;38.30;;;24.70;;
4986;SDS011;12674;51.500;7.552;2024-03-07T05:40:21;35.50;;;23.40;;
4986;SDS011;12674;51.500;7.552;2024-03-07T05:42:24;41.00;;;25.77;;
4986;SDS011;12674;51.500;7.552;2024-03-07T05:44:27;32.77;;;23.60;;
4986;SDS011;12674;51.500;7.552;2024-03-07T05:46:30;37.07;;;24.83;;
4986;SDS011;12674;51.500;7.552;2024-03-07T05:48:32;37.53;;;24.63;;
4986;SDS011;12674;51.500;7.552;2024-03-07T05:50:35;36.33;;;23.63;;
4986;SDS011;12674;51.500;7.552;2024-03-07T05:52:38;40.10;;;25.63;;
4986;SDS011;12674;51.500;7.552;2024-03-07T05:54:41;39.50;;;23.43;;
4986;SDS011;12674;51.500;7.552;2024-03-07T05:56:47;36.20;;;24.87;;
4986;SDS011;12674;51.500;7.552;2024-03-07T05:58:50;30.70;;;21.87;;
4986;SDS011;12674;51.500;7.552;2024-03-07T06:00:53;34.33;;;23.60;;
4986;SDS011;12674;51.500;7.552;2024-03-07T06:02:56;37.30;;;24.60;;
4986;SDS011;12674;51.500;7.552;2024-03-07T06:04:59;40.23;;;26.37;;
4986;SDS011;12674;51.500;7.552;2024-03-07T06:07:05;40.30;;;24.87;;
4986;SDS011;12674;51.500;7.552;2024-03-07T06:09:09;38.27;;;25.47;;
4986;SDS011;12674;51.500;7.552;2024-03-07T06:11:12;37.80;;;26.20;;
4986;SDS011;12674;51.500;7.552;2024-03-07T06:13:22;39.57;;;26.30;;
4986;SDS011;12674;51.500;7.552;2024-03-07T06:15:25;42.80;;;28.73;;
4986;SDS011;12674;51.500;7.552;2024-03-07T06:17:29;42.13;;;26.80;;
4986;SDS011;12674;51.500;7.552;2024-03-07T06:19:32;46.10;;;29.07;;
4986;SDS011;12674;51.500;7.552;2024-03-07T06:21:36;47.33;;;29.17;;
4986;SDS011;12674;51.500;7.552;2024-03-07T06:23:38;45.87;;;27.77;;
4986;SDS011;12674;51.500;7.552;2024-03-07T06:25:41;41.87;;;24.50;;
4986;SDS011;12674;51.500;7.552;2024-03-07T06:27:49;37.80;;;25.87;;
4986;SDS011;12674;51.500;7.552;2024-03-07T06:29:54;39.90;;;26.47;;
4986;SDS011;12674;51.500;7.552;2024-03-07T06:31:58;39.03;;;25.67;;
4986;SDS011;12674;51.500;7.552;2024-03-07T06:34:01;36.83;;;24.07;;
4986;SDS011;12674;51.500;7.552;2024-03-07T06:36:04;42.90;;;27.10;;
4986;SDS011;12674;51.500;7.552;2024-03-07T06:38:08;39.93;;;27.43;;
4986;SDS011;12674;51.500;7.552;2024-03-07T06:40:12;43.97;;;28.50;;
4986;SDS011;12674;51.500;7.552;2024-03-07T06:42:16;46.47;;;25.80;;
4986;SDS011;12674;51.500;7.552;2024-03-07T06:44:19;45.23;;;28.37;;
4986;SDS011;12674;51.500;7.552;2024-03-07T06:46:26;47.10;;;27.87;;
4986;SDS011;12674;51.500;7.552;2024-03-07T06:48:28;41.50;;;26.10;;
4986;SDS011;12674;51.500;7.552;2024-03-07T06:50:31;43.30;;;27.97;;
4986;SDS011;12674;51.500;7.552;2024-03-07T06:52:39;43.90;;;25.33;;
4986;SDS011;12674;51.500;7.552;2024-03-07T06:54:42;37.67;;;25.70;;
4986;SDS011;12674;51.500;7.552;2024-03-07T06:56:45;46.10;;;26.33;;
4986;SDS011;12674;51.500;7.552;2024-03-07T06:58:48;36.17;;;24.47;;
4986;SDS011;12674;51.500;7.552;2024-03-07T07:00:51;38.87;;;25.83;;
4986;SDS011;12674;51.500;7.552;2024-03-07T07:02:57;39.53;;;26.17;;
4986;SDS011;12674;51.500;7.552;2024-03-07T07:04:59;40.93;;;25.90;;
4986;SDS011;12674;51.500;7.552;2024-03-07T07:07:02;36.50;;;24.80;;
4986;SDS011;12674;51.500;7.552;2024-03-07T07:09:05;38.30;;;25.30;;
4986;SDS011;12674;51.500;7.552;2024-03-07T07:11:08;37.47;;;26.30;;
4986;SDS011;12674;51.500;7.552;2024-03-07T07:13:13;48.70;;;27.00;;
4986;SDS011;12674;51.500;7.552;2024-03-07T07:15:16;38.70;;;25.53;;
4986;SDS011;12674;51.500;7.552;2024-03-07T07:17:22;43.50;;;29.00;;
4986;SDS011;12674;51.500;7.552;2024-03-07T07:19:28;41.03;;;28.30;;
4986;SDS011;12674;51.500;7.552;2024-03-07T07:21:31;50.97;;;28.70;;
4986;SDS011;12674;51.500;7.552;2024-03-07T07:23:34;39.83;;;26.87;;
4986;SDS011;12674;51.500;7.552;2024-03-07T07:25:37;41.63;;;26.93;;
4986;SDS011;12674;51.500;7.552;2024-03-07T07:27:41;37.97;;;25.17;;
4986;SDS011;12674;51.500;7.552;2024-03-07T07:29:44;37.73;;;25.40;;
4986;SDS011;12674;51.500;7.552;2024-03-07T07:31:47;38.23;;;23.20;;
4986;SDS011;12674;51.500;7.552;2024-03-07T07:33:51;41.37;;;24.87;;
4986;SDS011;12674;51.500;7.552;2024-03-07T07:35:55;36.10;;;24.23;;
4986;SDS011;12674;51.500;7.552;2024-03-07T07:37:58;40.87;;;24.03;;
4986;SDS011;12674;51.500;7.552;2024-03-07T07:40:01;46.23;;;25.67;;
4986;SDS011;12674;51.500;7.552;2024-03-07T07:42:04;42.50;;;25.40;;
4986;SDS011;12674;51.500;7.552;2024-03-07T07:44:10;42.03;;;26.80;;
4986;SDS011;12674;51.500;7.552;2024-03-07T07:46:13;38.70;;;27.23;;
4986;SDS011;12674;51.500;7.552;2024-03-07T07:48:17;39.70;;;25.80;;
4986;SDS011;12674;51.500;7.552;2024-03-07T07:50:21;37.63;;;27.43;;
4986;SDS011;12674;51.500;7.552;2024-03-07T07:52:26;38.30;;;27.30;;
4986;SDS011;12674;51.500;7.552;2024-03-07T07:54:29;42.07;;;25.23;;
4986;SDS011;12674;51.500;7.552;2024-03-07T07:56:32;36.80;;;27.83;;
4986;SDS011;12674;51.500;7.552;2024-03-07T07:58:35;41.27;;;27.33;;
4986;SDS011;12674;51.500;7.552;2024-03-07T08:00:39;43.60;;;26.87;;
4986;SDS011;12674;51.500;7.552;2024-03-07T08:02:45;38.90;;;24.03;;
4986;SDS011;12674;51.500;7.552;2024-03-07T08:04:47;39.37;;;27.33;;
4986;SDS011;12674;51.500;7.552;2024-03-07T08:06:50;41.27;;;27.93;;
4986;SDS011;12674;51.500;7.552;2024-03-07T08:08:55;36.33;;;25.73;;
4986;SDS011;12674;51.500;7.552;2024-03-07T08:10:58;32.13;;;24.17;;
4986;SDS011;12674;51.500;7.552;2024-03-07T08:13:03;39.07;;;26.00;;
4986;SDS011;12674;51.500;7.552;2024-03-07T08:15:08;39.37;;;24.90;;
4986;SDS011;12674;51.500;7.552;2024-03-07T08:17:10;35.83;;;23.60;;
4986;SDS011;12674;51.500;7.552;2024-03-07T08:19:13;38.30;;;23.87;;
4986;SDS011;12674;51.500;7.552;2024-03-07T08:21:16;31.93;;;22.37;;
4986;SDS011;12674;51.500;7.552;2024-03-07T08:23:19;31.93;;;22.60;;
4986;SDS011;12674;51.500;7.552;2024-03-07T08:25:23;34.20;;;24.37;;
4986;SDS011;12674;51.500;7.552;2024-03-07T08:27:27;31.20;;;21.77;;
4986;SDS011;12674;51.500;7.552;2024-03-07T08:29:31;31.83;;;23.43;;
4986;SDS011;12674;51.500;7.552;2024-03-07T08:31:34;33.00;;;22.00;;
4986;SDS011;12674;51.500;7.552;2024-03-07T08:33:37;31.97;;;22.13;;
4986;SDS011;12674;51.500;7.552;2024-03-07T08:35:40;31.00;;;21.77;;
4986;SDS011;12674;51.500;7.552;2024-03-07T08:37:43;31.37;;;21.30;;
4986;SDS011;12674;51.500;7.552;2024-03-07T08:39:47;31.23;;;21.00;;
4986;SDS011;12674;51.500;7.552;2024-03-07T08:41:51;31.90;;;22.33;;
4986;SDS011;12674;51.500;7.552;2024-03-07T08:43:54;34.67;;;23.13;;
4986;SDS011;12674;51.500;7.552;2024-03-07T08:45:57;30.87;;;22.03;;
4986;SDS011;12674;51.500;7.552;2024-03-07T08:48:00;28.40;;;21.37;;
4986;SDS011;12674;51.500;7.552;2024-03-07T08:50:06;31.57;;;21.10;;
4986;SDS011;12674;51.500;7.552;2024-03-07T08:52:10;39.03;;;20.07;;
4986;SDS011;12674;51.500;7.552;2024-03-07T08:54:13;34.57;;;22.00;;
4986;SDS011;12674;51.500;7.552;2024-03-07T08:56:16;34.53;;;22.37;;
4986;SDS011;12674;51.500;7.552;2024-03-07T08:58:21;27.40;;;19.70;;
4986;SDS011;12674;51.500;7.552;2024-03-07T09:00:25;31.40;;;21.23;;
4986;SDS011;12674;51.500;7.552;2024-03-07T09:02:29;34.93;;;21.27;;
4986;SDS011;12674;51.500;7.552;2024-03-07T09:04:32;30.37;;;21.10;;
4986;SDS011;12674;51.500;7.552;2024-03-07T09:06:35;28.30;;;20.87;;
4986;SDS011;12674;51.500;7.552;2024-03-07T09:08:38;29.80;;;21.10;;
4986;SDS011;12674;51.500;7.552;2024-03-07T09:10:41;43.23;;;21.70;;
4986;SDS011;12674;51.500;7.552;2024-03-07T09:12:44;38.17;;;21.00;;
4986;SDS011;12674;51.500;7.552;2024-03-07T09:14:51;27.33;;;21.50;;
4986;SDS011;12674;51.500;7.552;2024-03-07T09:16:54;30.77;;;19.77;;
4986;SDS011;12674;51.500;7.552;2024-03-07T09:18:58;31.37;;;20.50;;
4986;SDS011;12674;51.500;7.552;2024-03-07T09:21:01;27.63;;;21.17;;
4986;SDS011;12674;51.500;7.552;2024-03-07T09:23:04;32.33;;;20.10;;
4986;SDS011;12674;51.500;7.552;2024-03-07T09:25:08;26.53;;;19.37;;
4986;SDS011;12674;51.500;7.552;2024-03-07T09:27:12;26.73;;;18.70;;
4986;SDS011;12674;51.500;7.552;2024-03-07T09:29:16;29.67;;;20.47;;
4986;SDS011;12674;51.500;7.552;2024-03-07T09:31:21;24.33;;;18.90;;
4986;SDS011;12674;51.500;7.552;2024-03-07T09:33:23;24.00;;;19.30;;
4986;SDS011;12674;51.500;7.552;2024-03-07T09:35:30;26.20;;;19.77;;
4986;SDS011;12674;51.500;7.552;2024-03-07T09:37:33;27.20;;;17.97;;
4986;SDS011;12674;51.500;7.552;2024-03-07T09:39:35;26.23;;;18.30;;
4986;SDS011;12674;51.500;7.552;2024-03-07T09:41:39;22.00;;;17.93;;
4986;SDS011;12674;51.500;7.552;2024-03-07T09:43:42;28.67;;;18.87;;
4986;SDS011;12674;51.500;7.552;2024-03-07T09:45:47;30.90;;;19.47;;
4986;SDS011;12674;51.500;7.552;2024-03-07T09:47:52;25.30;;;18.63;;
4986;SDS011;12674;51.500;7.552;2024-03-07T09:49:55;23.90;;;17.40;;
4986;SDS011;12674;51.500;7.552;2024-03-07T09:51:59;24.63;;;18.87;;
4986;SDS011;12674;51.500;7.552;2024-03-07T09:54:03;24.37;;;18.00;;
4986;SDS011;12674;51.500;7.552;2024-03-07T09:56:05;23.70;;;18.33;;
4986;SDS011;12674;51.500;7.552;2024-03-07T09:58:09;27.33;;;19.10;;
4986;SDS011;12674;51.500;7.552;2024-03-07T10:00:16;26.83;;;18.80;;
4986;SDS011;12674;51.500;7.552;2024-03-07T10:02:24;29.93;;;18.17;;
4986;SDS011;12674;51.500;7.552;2024-03-07T10:04:29;21.63;;;16.93;;
4986;SDS011;12674;51.500;7.552;2024-03-07T10:06:34;22.57;;;16.60;;
4986;SDS011;12674;51.500;7.552;2024-03-07T10:08:37;22.67;;;16.63;;
4986;SDS011;12674;51.500;7.552;2024-03-07T10:10:43;21.63;;;16.50;;
4986;SDS011;12674;51.500;7.552;2024-03-07T10:12:47;22.40;;;17.07;;
4986;SDS011;12674;51.500;7.552;2024-03-07T10:14:51;27.87;;;17.70;;
4986;SDS011;12674;51.500;7.552;2024-03-07T10:16:59;23.87;;;17.33;;
4986;SDS011;12674;51.500;7.552;2024-03-07T10:19:03;21.70;;;17.17;;
4986;SDS011;12674;51.500;7.552;2024-03-07T10:21:08;23.17;;;17.13;;
4986;SDS011;12674;51.500;7.552;2024-03-07T10:23:12;28.60;;;16.70;;
4986;SDS011;12674;51.500;7.552;2024-03-07T10:25:21;29.53;;;17.33;;
4986;SDS011;12674;51.500;7.552;2024-03-07T10:27:27;21.00;;;16.37;;
4986;SDS011;12674;51.500;7.552;2024-03-07T10:29:30;22.53;;;16.70;;
4986;SDS011;12674;51.500;7.552;2024-03-07T10:31:33;21.67;;;17.37;;
4986;SDS011;12674;51.500;7.552;2024-03-07T10:33:46;21.23;;;16.40;;
4986;SDS011;12674;51.500;7.552;2024-03-07T10:35:49;23.93;;;17.60;;
4986;SDS011;12674;51.500;7.552;2024-03-07T10:37:54;25.40;;;17.07;;
4986;SDS011;12674;51.500;7.552;2024-03-07T10:39:57;25.63;;;17.00;;
4986;SDS011;12674;51.500;7.552;2024-03-07T10:42:00;25.57;;;17.97;;
4986;SDS011;12674;51.500;7.552;2024-03-07T10:44:07;22.43;;;16.60;;
4986;SDS011;12674;51.500;7.552;2024-03-07T10:46:11;22.20;;;17.40;;
4986;SDS011;12674;51.500;7.552;2024-03-07T10:48:16;24.13;;;17.97;;
4986;SDS011;12674;51.500;7.552;2024-03-07T10:50:29;20.40;;;16.17;;
4986;SDS011;12674;51.500;7.552;2024-03-07T10:52:38;25.03;;;17.27;;
4986;SDS011;12674;51.500;7.552;2024-03-07T10:54:44;28.87;;;17.20;;
4986;SDS011;12674;51.500;7.552;2024-03-07T10:56:57;20.83;;;17.23;;
4986;SDS011;12674;51.500;7.552;2024-03-07T10:59:05;22.70;;;16.70;;
4986;SDS011;12674;51.500;7.552;2024-03-07T11:01:10;23.47;;;18.30;;
4986;SDS011;12674;51.500;7.552;2024-03-07T11:03:16;24.07;;;17.60;;
4986;SDS011;12674;51.500;7.552;2024-03-07T11:05:24;27.93;;;17.83;;
4986;SDS011;12674;51.500;7.552;2024-03-07T11:07:31;23.30;;;17.30;;
4986;SDS011;12674;51.500;7.552;2024-03-07T11:09:34;23.67;;;17.20;;
4986;SDS011;12674;51.500;7.552;2024-03-07T11:11:39;26.17;;;17.90;;
4986;SDS011;12674;51.500;7.552;2024-03-07T11:13:44;22.10;;;16.30;;
4986;SDS011;12674;51.500;7.552;2024-03-07T11:15:48;20.83;;;16.43;;
4986;SDS011;12674;51.500;7.552;2024-03-07T11:17:52;21.00;;;16.10;;
4986;SDS011;12674;51.500;7.552;2024-03-07T11:22:30;23.20;;;16.53;;
4986;SDS011;12674;51.500;7.552;2024-03-07T11:24:34;22.00;;;16.80;;
4986;SDS011;12674;51.500;7.552;2024-03-07T11:26:39;21.33;;;16.60;;
4986;SDS011;12674;51.500;7.552;2024-03-07T11:28:41;23.77;;;16.90;;
4986;SDS011;12674;51.500;7.552;2024-03-07T11:30:44;20.37;;;15.73;;
4986;SDS011;12674;51.500;7.552;2024-03-07T11:32:48;21.70;;;15.47;;
4986;SDS011;12674;51.500;7.552;2024-03-07T11:34:53;20.17;;;15.17;;
4986;SDS011;12674;51.500;7.552;2024-03-07T11:36:57;21.33;;;16.10;;
4986;SDS011;12674;51.500;7.552;2024-03-07T11:39:01;21.93;;;16.60;;
4986;SDS011;12674;51.500;7.552;2024-03-07T11:41:24;20.40;;;15.87;;
4986;SDS011;12674;51.500;7.552;2024-03-07T11:43:29;23.00;;;15.27;;
4986;SDS011;12674;51.500;7.552;2024-03-07T11:45:32;20.20;;;16.20;;
4986;SDS011;12674;51.500;7.552;2024-03-07T11:47:40;19.07;;;14.57;;
4986;SDS011;12674;51.500;7.552;2024-03-07T11:49:43;26.53;;;14.93;;
4986;SDS011;12674;51.500;7.552;2024-03-07T11:51:49;25.37;;;17.07;;
4986;SDS011;12674;51.500;7.552;2024-03-07T11:53:54;22.03;;;15.80;;
4986;SDS011;12674;51.500;7.552;2024-03-07T11:55:57;20.47;;;14.70;;
4986;SDS011;12674;51.500;7.552;2024-03-07T11:58:00;24.40;;;15.27;;
4986;SDS011;12674;51.500;7.552;2024-03-07T12:00:04;18.80;;;14.40;;
4986;SDS011;12674;51.500;7.552;2024-03-07T12:02:14;20.40;;;15.70;;
4986;SDS011;12674;51.500;7.552;2024-03-07T12:04:19;21.60;;;14.10;;
4986;SDS011;12674;51.500;7.552;2024-03-07T12:06:24;17.93;;;12.80;;
4986;SDS011;12674;51.500;7.552;2024-03-07T12:08:28;16.53;;;13.10;;
4986;SDS011;12674;51.500;7.552;2024-03-07T12:10:31;19.73;;;12.60;;
4986;SDS011;12674;51.500;7.552;2024-03-07T12:12:33;17.90;;;14.33;;
4986;SDS011;12674;51.500;7.552;2024-03-07T12:14:37;19.00;;;14.53;;
4986;SDS011;12674;51.500;7.552;2024-03-07T12:16:42;17.70;;;13.50;;